sensor_id;sensor_type;location;lat;lon;timestamp;P1;durP1;ratioP1;P2;durP2;ratioP2
64615;SDS011;51027;42.162;24.754;2023-08-31T00:01:53;7.75;;;2.65;;
64615;SDS011;51027;42.162;24.754;2023-08-31T00:04:19;9.68;;;3.30;;
64615;SDS011;51027;42.162;24.754;2023-08-31T00:06:44;6.72;;;2.83;;
64615;SDS011;51027;42.162;24.754;2023-08-31T00:09:11;7.43;;;2.70;;
64615;SDS011;51027;42.162;24.754;2023-08-31T00:11:37;8.65;;;2.80;;
64615;SDS011;51027;42.162;24.754;2023-08-31T00:14:03;9.90;;;2.85;;
64615;SDS011;51027;42.162;24.754;2023-08-31T00:16:29;8.57;;;2.88;;
64615;SDS011;51027;42.162;24.754;2023-08-31T00:18:58;7.85;;;2.88;;
64615;SDS011;51027;42.162;24.754;2023-08-31T00:21:24;9.52;;;2.90;;
64615;SDS011;51027;42.162;24.754;2023-08-31T00:23:50;9.82;;;3.17;;
64615;SDS011;51027;42.162;24.754;2023-08-31T00:26:15;8.70;;;2.85;;
64615;SDS011;51027;42.162;24.754;2023-08-31T00:28:41;6.50;;;2.60;;
64615;SDS011;51027;42.162;24.754;2023-08-31T00:31:08;5.95;;;2.33;;
64615;SDS011;51027;42.162;24.754;2023-08-31T00:33:33;9.25;;;2.70;;
64615;SDS011;51027;42.162;24.754;2023-08-31T00:36:02;8.10;;;2.70;;
64615;SDS011;51027;42.162;24.754;2023-08-31T00:38:28;6.72;;;2.38;;
64615;SDS011;51027;42.162;24.754;2023-08-31T00:40:57;9.57;;;2.83;;
64615;SDS011;51027;42.162;24.754;2023-08-31T00:43:22;8.32;;;2.90;;
64615;SDS011;51027;42.162;24.754;2023-08-31T00:45:49;7.10;;;2.58;;
64615;SDS011;51027;42.162;24.754;2023-08-31T00:48:16;7.25;;;2.50;;
64615;SDS011;51027;42.162;24.754;2023-08-31T00:50:43;9.57;;;2.70;;
64615;SDS011;51027;42.162;24.754;2023-08-31T00:55:37;7.90;;;2.95;;
64615;SDS011;51027;42.162;24.754;2023-08-31T00:58:05;8.80;;;2.88;;
64615;SDS011;51027;42.162;24.754;2023-08-31T01:03:38;7.10;;;2.53;;
64615;SDS011;51027;42.162;24.754;2023-08-31T01:12:12;9.45;;;2.55;;
64615;SDS011;51027;42.162;24.754;2023-08-31T01:14:56;7.40;;;2.50;;
64615;SDS011;51027;42.162;24.754;2023-08-31T01:17:24;6.25;;;2.88;;
64615;SDS011;51027;42.162;24.754;2023-08-31T01:19:55;10.20;;;2.80;;
64615;SDS011;51027;42.162;24.754;2023-08-31T01:24:52;8.50;;;2.92;;
64615;SDS011;51027;42.162;24.754;2023-08-31T01:27:18;7.50;;;2.60;;
64615;SDS011;51027;42.162;24.754;2023-08-31T01:29:44;9.60;;;2.97;;
64615;SDS011;51027;42.162;24.754;2023-08-31T01:32:09;11.35;;;2.90;;
64615;SDS011;51027;42.162;24.754;2023-08-31T01:34:50;7.13;;;2.75;;
64615;SDS011;51027;42.162;24.754;2023-08-31T01:37:59;8.13;;;3.08;;
64615;SDS011;51027;42.162;24.754;2023-08-31T01:40:20;9.57;;;2.90;;
64615;SDS011;51027;42.162;24.754;2023-08-31T01:42:48;8.45;;;2.85;;
64615;SDS011;51027;42.162;24.754;2023-08-31T01:45:18;6.90;;;2.40;;
64615;SDS011;51027;42.162;24.754;2023-08-31T01:47:45;9.43;;;2.97;;
64615;SDS011;51027;42.162;24.754;2023-08-31T01:50:11;6.50;;;2.45;;
64615;SDS011;51027;42.162;24.754;2023-08-31T01:52:37;9.68;;;2.92;;
64615;SDS011;51027;42.162;24.754;2023-08-31T01:55:02;6.43;;;2.15;;
64615;SDS011;51027;42.162;24.754;2023-08-31T01:57:28;7.60;;;2.72;;
64615;SDS011;51027;42.162;24.754;2023-08-31T01:59:54;6.90;;;2.50;;
64615;SDS011;51027;42.162;24.754;2023-08-31T02:02:19;7.65;;;2.83;;
64615;SDS011;51027;42.162;24.754;2023-08-31T02:04:46;5.18;;;2.47;;
64615;SDS011;51027;42.162;24.754;2023-08-31T02:07:11;9.57;;;2.50;;
64615;SDS011;51027;42.162;24.754;2023-08-31T02:09:37;8.50;;;2.92;;
64615;SDS011;51027;42.162;24.754;2023-08-31T02:12:02;6.97;;;2.72;;
64615;SDS011;51027;42.162;24.754;2023-08-31T02:14:29;5.78;;;2.28;;
64615;SDS011;51027;42.162;24.754;2023-08-31T02:16:55;6.95;;;2.55;;
64615;SDS011;51027;42.162;24.754;2023-08-31T02:19:20;5.38;;;2.47;;
64615;SDS011;51027;42.162;24.754;2023-08-31T02:21:45;7.10;;;2.67;;
64615;SDS011;51027;42.162;24.754;2023-08-31T02:24:11;4.32;;;2.05;;
64615;SDS011;51027;42.162;24.754;2023-08-31T02:26:36;8.27;;;2.60;;
64615;SDS011;51027;42.162;24.754;2023-08-31T02:29:04;6.15;;;2.38;;
64615;SDS011;51027;42.162;24.754;2023-08-31T02:31:30;5.80;;;2.72;;
64615;SDS011;51027;42.162;24.754;2023-08-31T02:33:55;8.23;;;2.58;;
64615;SDS011;51027;42.162;24.754;2023-08-31T02:36:20;7.53;;;2.85;;
64615;SDS011;51027;42.162;24.754;2023-08-31T02:38:46;8.82;;;2.45;;
64615;SDS011;51027;42.162;24.754;2023-08-31T02:41:12;5.50;;;2.35;;
64615;SDS011;51027;42.162;24.754;2023-08-31T02:43:38;10.95;;;3.17;;
64615;SDS011;51027;42.162;24.754;2023-08-31T02:46:04;9.30;;;2.90;;
64615;SDS011;51027;42.162;24.754;2023-08-31T02:48:29;9.18;;;2.70;;
64615;SDS011;51027;42.162;24.754;2023-08-31T02:50:57;8.13;;;2.63;;
64615;SDS011;51027;42.162;24.754;2023-08-31T02:53:26;9.30;;;3.00;;
64615;SDS011;51027;42.162;24.754;2023-08-31T02:55:52;9.18;;;2.75;;
64615;SDS011;51027;42.162;24.754;2023-08-31T02:58:17;7.75;;;2.45;;
64615;SDS011;51027;42.162;24.754;2023-08-31T03:00:44;9.35;;;2.47;;
64615;SDS011;51027;42.162;24.754;2023-08-31T03:03:12;10.82;;;2.83;;
64615;SDS011;51027;42.162;24.754;2023-08-31T03:05:38;8.82;;;2.85;;
64615;SDS011;51027;42.162;24.754;2023-08-31T03:08:04;7.90;;;2.60;;
64615;SDS011;51027;42.162;24.754;2023-08-31T03:10:30;7.88;;;2.33;;
64615;SDS011;51027;42.162;24.754;2023-08-31T03:12:55;12.45;;;3.05;;
64615;SDS011;51027;42.162;24.754;2023-08-31T03:15:20;10.68;;;2.97;;
64615;SDS011;51027;42.162;24.754;2023-08-31T03:17:46;6.38;;;2.50;;
64615;SDS011;51027;42.162;24.754;2023-08-31T03:20:11;6.32;;;2.42;;
64615;SDS011;51027;42.162;24.754;2023-08-31T03:22:37;10.00;;;2.72;;
64615;SDS011;51027;42.162;24.754;2023-08-31T03:25:02;10.23;;;2.95;;
64615;SDS011;51027;42.162;24.754;2023-08-31T03:27:28;10.73;;;3.03;;
64615;SDS011;51027;42.162;24.754;2023-08-31T03:29:53;8.35;;;2.95;;
64615;SDS011;51027;42.162;24.754;2023-08-31T03:32:19;10.32;;;2.83;;
64615;SDS011;51027;42.162;24.754;2023-08-31T03:34:44;8.00;;;2.88;;
64615;SDS011;51027;42.162;24.754;2023-08-31T03:37:10;10.05;;;3.00;;
64615;SDS011;51027;42.162;24.754;2023-08-31T03:39:35;8.20;;;3.03;;
64615;SDS011;51027;42.162;24.754;2023-08-31T03:42:02;8.35;;;2.80;;
64615;SDS011;51027;42.162;24.754;2023-08-31T03:44:27;9.57;;;2.83;;
64615;SDS011;51027;42.162;24.754;2023-08-31T03:46:53;10.38;;;2.70;;
64615;SDS011;51027;42.162;24.754;2023-08-31T03:49:18;9.43;;;2.78;;
64615;SDS011;51027;42.162;24.754;2023-08-31T03:51:43;9.07;;;2.58;;
64615;SDS011;51027;42.162;24.754;2023-08-31T03:54:09;9.93;;;3.08;;
64615;SDS011;51027;42.162;24.754;2023-08-31T03:56:34;9.13;;;2.75;;
64615;SDS011;51027;42.162;24.754;2023-08-31T03:59:01;4.82;;;2.40;;
64615;SDS011;51027;42.162;24.754;2023-08-31T04:01:28;9.20;;;2.88;;
64615;SDS011;51027;42.162;24.754;2023-08-31T04:03:54;8.45;;;2.40;;
64615;SDS011;51027;42.162;24.754;2023-08-31T04:06:19;10.88;;;2.97;;
64615;SDS011;51027;42.162;24.754;2023-08-31T04:08:45;8.95;;;2.75;;
64615;SDS011;51027;42.162;24.754;2023-08-31T04:11:10;8.15;;;2.67;;
64615;SDS011;51027;42.162;24.754;2023-08-31T04:13:35;8.90;;;3.03;;
64615;SDS011;51027;42.162;24.754;2023-08-31T04:16:01;10.93;;;2.90;;
64615;SDS011;51027;42.162;24.754;2023-08-31T04:18:26;9.70;;;3.00;;
64615;SDS011;51027;42.162;24.754;2023-08-31T04:20:52;7.97;;;2.85;;
64615;SDS011;51027;42.162;24.754;2023-08-31T04:23:19;11.00;;;3.30;;
64615;SDS011;51027;42.162;24.754;2023-08-31T04:25:45;7.97;;;2.67;;
64615;SDS011;51027;42.162;24.754;2023-08-31T04:28:11;10.27;;;3.20;;
64615;SDS011;51027;42.162;24.754;2023-08-31T04:30:36;9.02;;;3.03;;
64615;SDS011;51027;42.162;24.754;2023-08-31T04:33:02;10.52;;;3.00;;
64615;SDS011;51027;42.162;24.754;2023-08-31T04:35:29;13.52;;;3.40;;
64615;SDS011;51027;42.162;24.754;2023-08-31T04:37:56;8.18;;;3.60;;
64615;SDS011;51027;42.162;24.754;2023-08-31T04:40:22;10.75;;;3.22;;
64615;SDS011;51027;42.162;24.754;2023-08-31T04:42:47;9.88;;;3.33;;
64615;SDS011;51027;42.162;24.754;2023-08-31T04:45:12;9.93;;;3.00;;
64615;SDS011;51027;42.162;24.754;2023-08-31T04:47:38;11.13;;;3.28;;
64615;SDS011;51027;42.162;24.754;2023-08-31T04:50:03;9.40;;;2.97;;
64615;SDS011;51027;42.162;24.754;2023-08-31T04:52:31;11.45;;;3.15;;
64615;SDS011;51027;42.162;24.754;2023-08-31T04:54:57;11.85;;;3.40;;
64615;SDS011;51027;42.162;24.754;2023-08-31T04:57:23;10.43;;;3.00;;
64615;SDS011;51027;42.162;24.754;2023-08-31T04:59:49;11.68;;;3.33;;
64615;SDS011;51027;42.162;24.754;2023-08-31T05:02:14;10.95;;;3.80;;
64615;SDS011;51027;42.162;24.754;2023-08-31T05:04:40;12.90;;;3.55;;
64615;SDS011;51027;42.162;24.754;2023-08-31T05:07:05;10.23;;;3.22;;
64615;SDS011;51027;42.162;24.754;2023-08-31T05:09:30;10.88;;;3.50;;
64615;SDS011;51027;42.162;24.754;2023-08-31T05:11:59;10.90;;;3.55;;
64615;SDS011;51027;42.162;24.754;2023-08-31T05:14:28;11.10;;;3.67;;
64615;SDS011;51027;42.162;24.754;2023-08-31T05:16:54;11.27;;;3.33;;
64615;SDS011;51027;42.162;24.754;2023-08-31T05:19:19;14.35;;;4.60;;
64615;SDS011;51027;42.162;24.754;2023-08-31T05:21:45;14.00;;;4.10;;
64615;SDS011;51027;42.162;24.754;2023-08-31T05:24:11;10.90;;;3.80;;
64615;SDS011;51027;42.162;24.754;2023-08-31T05:26:36;12.38;;;4.20;;
64615;SDS011;51027;42.162;24.754;2023-08-31T05:29:01;13.30;;;4.03;;
64615;SDS011;51027;42.162;24.754;2023-08-31T05:31:29;9.52;;;3.22;;
64615;SDS011;51027;42.162;24.754;2023-08-31T05:33:55;14.50;;;3.50;;
64615;SDS011;51027;42.162;24.754;2023-08-31T05:36:20;9.93;;;3.20;;
64615;SDS011;51027;42.162;24.754;2023-08-31T05:38:46;9.82;;;3.20;;
64615;SDS011;51027;42.162;24.754;2023-08-31T05:41:11;7.05;;;2.63;;
64615;SDS011;51027;42.162;24.754;2023-08-31T05:43:37;11.48;;;3.47;;
64615;SDS011;51027;42.162;24.754;2023-08-31T05:46:05;8.35;;;2.72;;
64615;SDS011;51027;42.162;24.754;2023-08-31T05:48:31;6.43;;;2.75;;
64615;SDS011;51027;42.162;24.754;2023-08-31T05:50:56;7.47;;;3.00;;
64615;SDS011;51027;42.162;24.754;2023-08-31T05:53:22;9.43;;;3.10;;
64615;SDS011;51027;42.162;24.754;2023-08-31T05:55:47;10.23;;;3.13;;
64615;SDS011;51027;42.162;24.754;2023-08-31T05:58:13;10.68;;;3.35;;
64615;SDS011;51027;42.162;24.754;2023-08-31T06:00:39;9.48;;;2.35;;
64615;SDS011;51027;42.162;24.754;2023-08-31T06:03:04;6.55;;;2.60;;
64615;SDS011;51027;42.162;24.754;2023-08-31T06:05:31;5.10;;;2.67;;
64615;SDS011;51027;42.162;24.754;2023-08-31T06:07:58;10.23;;;2.95;;
64615;SDS011;51027;42.162;24.754;2023-08-31T06:10:23;7.80;;;2.42;;
64615;SDS011;51027;42.162;24.754;2023-08-31T06:12:49;7.93;;;2.47;;
64615;SDS011;51027;42.162;24.754;2023-08-31T06:15:16;5.57;;;2.63;;
64615;SDS011;51027;42.162;24.754;2023-08-31T06:17:42;6.43;;;2.47;;
64615;SDS011;51027;42.162;24.754;2023-08-31T06:20:07;9.57;;;2.80;;
64615;SDS011;51027;42.162;24.754;2023-08-31T06:22:33;6.25;;;2.38;;
64615;SDS011;51027;42.162;24.754;2023-08-31T06:24:59;10.45;;;2.70;;
64615;SDS011;51027;42.162;24.754;2023-08-31T06:27:25;10.90;;;2.90;;
64615;SDS011;51027;42.162;24.754;2023-08-31T06:29:51;5.78;;;2.35;;
64615;SDS011;51027;42.162;24.754;2023-08-31T06:32:17;8.57;;;2.65;;
64615;SDS011;51027;42.162;24.754;2023-08-31T06:34:43;7.90;;;2.83;;
64615;SDS011;51027;42.162;24.754;2023-08-31T06:37:09;9.48;;;2.60;;
64615;SDS011;51027;42.162;24.754;2023-08-31T06:39:35;7.25;;;2.85;;
64615;SDS011;51027;42.162;24.754;2023-08-31T06:42:01;10.93;;;2.88;;
64615;SDS011;51027;42.162;24.754;2023-08-31T06:44:27;9.23;;;2.70;;
64615;SDS011;51027;42.162;24.754;2023-08-31T06:46:54;7.00;;;2.47;;
64615;SDS011;51027;42.162;24.754;2023-08-31T06:49:20;6.93;;;2.33;;
64615;SDS011;51027;42.162;24.754;2023-08-31T06:51:45;7.43;;;2.60;;
64615;SDS011;51027;42.162;24.754;2023-08-31T06:54:11;9.35;;;3.13;;
64615;SDS011;51027;42.162;24.754;2023-08-31T06:56:36;7.30;;;2.60;;
64615;SDS011;51027;42.162;24.754;2023-08-31T06:59:02;9.20;;;2.40;;
64615;SDS011;51027;42.162;24.754;2023-08-31T07:01:28;9.38;;;2.55;;
64615;SDS011;51027;42.162;24.754;2023-08-31T07:03:54;9.00;;;2.55;;
64615;SDS011;51027;42.162;24.754;2023-08-31T07:06:20;6.60;;;2.42;;
64615;SDS011;51027;42.162;24.754;2023-08-31T07:08:45;9.93;;;2.60;;
64615;SDS011;51027;42.162;24.754;2023-08-31T07:11:12;7.47;;;2.67;;
64615;SDS011;51027;42.162;24.754;2023-08-31T07:13:38;9.27;;;3.00;;
64615;SDS011;51027;42.162;24.754;2023-08-31T07:16:03;8.30;;;2.90;;
64615;SDS011;51027;42.162;24.754;2023-08-31T07:18:30;6.68;;;2.55;;
64615;SDS011;51027;42.162;24.754;2023-08-31T07:20:55;5.35;;;2.50;;
64615;SDS011;51027;42.162;24.754;2023-08-31T07:23:20;4.10;;;2.10;;
64615;SDS011;51027;42.162;24.754;2023-08-31T07:25:46;8.90;;;2.85;;
64615;SDS011;51027;42.162;24.754;2023-08-31T07:28:12;5.78;;;2.13;;
64615;SDS011;51027;42.162;24.754;2023-08-31T07:30:37;6.68;;;2.30;;
64615;SDS011;51027;42.162;24.754;2023-08-31T07:33:03;8.82;;;2.95;;
64615;SDS011;51027;42.162;24.754;2023-08-31T07:35:31;7.22;;;2.58;;
64615;SDS011;51027;42.162;24.754;2023-08-31T07:37:57;7.90;;;2.73;;
64615;SDS011;51027;42.162;24.754;2023-08-31T07:40:22;10.27;;;2.30;;
64615;SDS011;51027;42.162;24.754;2023-08-31T07:42:48;5.93;;;2.53;;
64615;SDS011;51027;42.162;24.754;2023-08-31T07:45:13;8.25;;;2.50;;
64615;SDS011;51027;42.162;24.754;2023-08-31T07:47:41;8.57;;;2.97;;
64615;SDS011;51027;42.162;24.754;2023-08-31T07:50:07;4.75;;;2.15;;
64615;SDS011;51027;42.162;24.754;2023-08-31T07:52:33;8.93;;;2.63;;
64615;SDS011;51027;42.162;24.754;2023-08-31T07:54:58;9.50;;;2.50;;
64615;SDS011;51027;42.162;24.754;2023-08-31T07:57:23;5.68;;;2.50;;
64615;SDS011;51027;42.162;24.754;2023-08-31T07:59:49;8.27;;;2.42;;
64615;SDS011;51027;42.162;24.754;2023-08-31T08:02:14;7.15;;;2.70;;
64615;SDS011;51027;42.162;24.754;2023-08-31T08:04:41;9.95;;;2.90;;
64615;SDS011;51027;42.162;24.754;2023-08-31T08:07:06;9.60;;;3.03;;
64615;SDS011;51027;42.162;24.754;2023-08-31T08:09:32;6.38;;;2.28;;
64615;SDS011;51027;42.162;24.754;2023-08-31T08:11:57;9.10;;;2.65;;
64615;SDS011;51027;42.162;24.754;2023-08-31T08:14:22;7.53;;;2.60;;
64615;SDS011;51027;42.162;24.754;2023-08-31T08:16:48;6.50;;;1.80;;
64615;SDS011;51027;42.162;24.754;2023-08-31T08:19:13;6.60;;;2.28;;
64615;SDS011;51027;42.162;24.754;2023-08-31T08:21:39;4.32;;;1.70;;
64615;SDS011;51027;42.162;24.754;2023-08-31T08:24:04;5.68;;;1.85;;
64615;SDS011;51027;42.162;24.754;2023-08-31T08:26:30;5.50;;;2.10;;
64615;SDS011;51027;42.162;24.754;2023-08-31T08:28:55;6.85;;;2.28;;
64615;SDS011;51027;42.162;24.754;2023-08-31T08:31:20;5.57;;;1.85;;
64615;SDS011;51027;42.162;24.754;2023-08-31T08:33:46;6.97;;;2.20;;
64615;SDS011;51027;42.162;24.754;2023-08-31T08:36:11;3.92;;;1.92;;
64615;SDS011;51027;42.162;24.754;2023-08-31T08:38:37;6.88;;;2.17;;
64615;SDS011;51027;42.162;24.754;2023-08-31T08:41:05;3.85;;;1.92;;
64615;SDS011;51027;42.162;24.754;2023-08-31T08:43:31;6.57;;;2.10;;
64615;SDS011;51027;42.162;24.754;2023-08-31T08:45:59;5.35;;;1.90;;
64615;SDS011;51027;42.162;24.754;2023-08-31T08:48:29;5.50;;;2.10;;
64615;SDS011;51027;42.162;24.754;2023-08-31T08:50:55;3.58;;;1.67;;
64615;SDS011;51027;42.162;24.754;2023-08-31T08:53:22;4.35;;;1.85;;
64615;SDS011;51027;42.162;24.754;2023-08-31T08:55:47;6.03;;;1.77;;
64615;SDS011;51027;42.162;24.754;2023-08-31T08:58:13;5.15;;;1.90;;
64615;SDS011;51027;42.162;24.754;2023-08-31T09:00:39;5.28;;;2.03;;
64615;SDS011;51027;42.162;24.754;2023-08-31T09:03:05;6.10;;;2.00;;
64615;SDS011;51027;42.162;24.754;2023-08-31T09:05:33;5.65;;;2.20;;
64615;SDS011;51027;42.162;24.754;2023-08-31T09:08:06;6.73;;;2.00;;
64615;SDS011;51027;42.162;24.754;2023-08-31T09:10:40;6.22;;;1.95;;
64615;SDS011;51027;42.162;24.754;2023-08-31T09:13:07;6.25;;;1.80;;
64615;SDS011;51027;42.162;24.754;2023-08-31T09:15:41;4.75;;;2.17;;
64615;SDS011;51027;42.162;24.754;2023-08-31T09:18:28;7.72;;;2.22;;
64615;SDS011;51027;42.162;24.754;2023-08-31T09:20:56;5.35;;;2.20;;
64615;SDS011;51027;42.162;24.754;2023-08-31T09:23:22;6.10;;;2.10;;
64615;SDS011;51027;42.162;24.754;2023-08-31T09:25:52;6.07;;;2.20;;
64615;SDS011;51027;42.162;24.754;2023-08-31T09:28:19;4.03;;;1.85;;
64615;SDS011;51027;42.162;24.754;2023-08-31T09:30:51;4.43;;;1.60;;
64615;SDS011;51027;42.162;24.754;2023-08-31T09:33:18;3.58;;;2.00;;
64615;SDS011;51027;42.162;24.754;2023-08-31T09:35:49;7.05;;;2.15;;
64615;SDS011;51027;42.162;24.754;2023-08-31T09:38:16;5.85;;;2.03;;
64615;SDS011;51027;42.162;24.754;2023-08-31T09:40:42;6.65;;;1.95;;
64615;SDS011;51027;42.162;24.754;2023-08-31T09:43:08;4.97;;;1.83;;
64615;SDS011;51027;42.162;24.754;2023-08-31T09:45:34;6.18;;;2.20;;
64615;SDS011;51027;42.162;24.754;2023-08-31T09:48:00;7.95;;;2.30;;
64615;SDS011;51027;42.162;24.754;2023-08-31T09:50:31;3.47;;;1.88;;
64615;SDS011;51027;42.162;24.754;2023-08-31T09:53:03;5.05;;;2.30;;
64615;SDS011;51027;42.162;24.754;2023-08-31T09:55:30;7.38;;;2.15;;
64615;SDS011;51027;42.162;24.754;2023-08-31T09:57:57;5.07;;;1.85;;
64615;SDS011;51027;42.162;24.754;2023-08-31T10:00:25;4.38;;;1.75;;
64615;SDS011;51027;42.162;24.754;2023-08-31T10:02:52;5.55;;;2.00;;
64615;SDS011;51027;42.162;24.754;2023-08-31T10:07:46;8.80;;;2.50;;
64615;SDS011;51027;42.162;24.754;2023-08-31T10:10:13;4.63;;;2.28;;
64615;SDS011;51027;42.162;24.754;2023-08-31T10:12:40;5.82;;;2.13;;
64615;SDS011;51027;42.162;24.754;2023-08-31T10:15:06;9.45;;;2.50;;
64615;SDS011;51027;42.162;24.754;2023-08-31T10:17:32;4.82;;;2.00;;
64615;SDS011;51027;42.162;24.754;2023-08-31T10:19:58;4.38;;;2.13;;
64615;SDS011;51027;42.162;24.754;2023-08-31T10:22:24;5.07;;;1.75;;
64615;SDS011;51027;42.162;24.754;2023-08-31T10:32:46;7.25;;;2.13;;
64615;SDS011;51027;42.162;24.754;2023-08-31T10:35:26;7.90;;;2.63;;
64615;SDS011;51027;42.162;24.754;2023-08-31T10:38:15;6.30;;;2.17;;
64615;SDS011;51027;42.162;24.754;2023-08-31T10:40:42;6.50;;;1.95;;
64615;SDS011;51027;42.162;24.754;2023-08-31T10:43:25;6.13;;;2.42;;
64615;SDS011;51027;42.162;24.754;2023-08-31T10:45:50;4.72;;;2.15;;
64615;SDS011;51027;42.162;24.754;2023-08-31T10:48:17;8.80;;;2.53;;
64615;SDS011;51027;42.162;24.754;2023-08-31T10:50:43;7.63;;;2.40;;
64615;SDS011;51027;42.162;24.754;2023-08-31T10:53:12;8.45;;;2.38;;
64615;SDS011;51027;42.162;24.754;2023-08-31T10:55:50;9.25;;;2.60;;
64615;SDS011;51027;42.162;24.754;2023-08-31T10:58:17;6.38;;;2.60;;
64615;SDS011;51027;42.162;24.754;2023-08-31T11:00:46;6.03;;;2.35;;
64615;SDS011;51027;42.162;24.754;2023-08-31T11:03:18;8.85;;;2.63;;
64615;SDS011;51027;42.162;24.754;2023-08-31T11:05:52;7.18;;;2.40;;
64615;SDS011;51027;42.162;24.754;2023-08-31T11:08:22;7.53;;;2.50;;
64615;SDS011;51027;42.162;24.754;2023-08-31T11:10:48;6.68;;;2.28;;
64615;SDS011;51027;42.162;24.754;2023-08-31T11:13:20;6.60;;;2.08;;
64615;SDS011;51027;42.162;24.754;2023-08-31T11:15:48;7.55;;;2.42;;
64615;SDS011;51027;42.162;24.754;2023-08-31T11:18:14;8.60;;;2.35;;
64615;SDS011;51027;42.162;24.754;2023-08-31T11:20:42;9.20;;;2.25;;
64615;SDS011;51027;42.162;24.754;2023-08-31T11:23:08;6.93;;;2.50;;
64615;SDS011;51027;42.162;24.754;2023-08-31T11:25:34;7.88;;;2.30;;
64615;SDS011;51027;42.162;24.754;2023-08-31T11:28:00;6.95;;;2.25;;
64615;SDS011;51027;42.162;24.754;2023-08-31T11:30:29;8.23;;;2.42;;
64615;SDS011;51027;42.162;24.754;2023-08-31T11:32:56;5.60;;;2.20;;
64615;SDS011;51027;42.162;24.754;2023-08-31T11:35:22;6.93;;;2.60;;
64615;SDS011;51027;42.162;24.754;2023-08-31T11:37:51;7.40;;;2.53;;
64615;SDS011;51027;42.162;24.754;2023-08-31T11:40:17;5.43;;;2.05;;
64615;SDS011;51027;42.162;24.754;2023-08-31T11:42:43;5.68;;;2.25;;
64615;SDS011;51027;42.162;24.754;2023-08-31T11:45:10;7.07;;;2.17;;
64615;SDS011;51027;42.162;24.754;2023-08-31T11:47:39;6.22;;;2.25;;
64615;SDS011;51027;42.162;24.754;2023-08-31T11:50:05;6.22;;;2.30;;
64615;SDS011;51027;42.162;24.754;2023-08-31T11:52:32;6.15;;;2.40;;
64615;SDS011;51027;42.162;24.754;2023-08-31T11:54:58;8.45;;;2.75;;
64615;SDS011;51027;42.162;24.754;2023-08-31T11:57:27;4.22;;;2.30;;
64615;SDS011;51027;42.162;24.754;2023-08-31T11:59:55;6.18;;;2.30;;
64615;SDS011;51027;42.162;24.754;2023-08-31T12:02:21;6.93;;;2.42;;
64615;SDS011;51027;42.162;24.754;2023-08-31T12:04:47;6.22;;;2.40;;
64615;SDS011;51027;42.162;24.754;2023-08-31T12:07:17;5.70;;;2.15;;
64615;SDS011;51027;42.162;24.754;2023-08-31T12:09:44;6.35;;;2.30;;
64615;SDS011;51027;42.162;24.754;2023-08-31T12:12:10;7.28;;;2.33;;
64615;SDS011;51027;42.162;24.754;2023-08-31T12:14:38;5.97;;;2.47;;
64615;SDS011;51027;42.162;24.754;2023-08-31T12:17:07;4.85;;;2.03;;
64615;SDS011;51027;42.162;24.754;2023-08-31T12:19:35;7.38;;;2.50;;
64615;SDS011;51027;42.162;24.754;2023-08-31T12:22:02;6.55;;;2.30;;
64615;SDS011;51027;42.162;24.754;2023-08-31T12:24:27;6.57;;;2.50;;
64615;SDS011;51027;42.162;24.754;2023-08-31T12:26:53;10.05;;;2.90;;
64615;SDS011;51027;42.162;24.754;2023-08-31T12:29:21;7.40;;;2.47;;
64615;SDS011;51027;42.162;24.754;2023-08-31T12:31:47;5.53;;;2.30;;
64615;SDS011;51027;42.162;24.754;2023-08-31T12:34:14;7.40;;;2.40;;
64615;SDS011;51027;42.162;24.754;2023-08-31T12:36:40;7.03;;;2.30;;
64615;SDS011;51027;42.162;24.754;2023-08-31T12:39:09;6.35;;;2.50;;
64615;SDS011;51027;42.162;24.754;2023-08-31T12:41:36;10.90;;;2.50;;
64615;SDS011;51027;42.162;24.754;2023-08-31T12:44:05;9.35;;;2.65;;
64615;SDS011;51027;42.162;24.754;2023-08-31T12:46:31;7.05;;;2.40;;
64615;SDS011;51027;42.162;24.754;2023-08-31T12:48:57;8.02;;;2.80;;
64615;SDS011;51027;42.162;24.754;2023-08-31T12:51:22;7.10;;;2.58;;
64615;SDS011;51027;42.162;24.754;2023-08-31T12:53:48;8.82;;;2.50;;
64615;SDS011;51027;42.162;24.754;2023-08-31T12:56:13;5.43;;;2.22;;
64615;SDS011;51027;42.162;24.754;2023-08-31T12:58:47;7.38;;;2.65;;
64615;SDS011;51027;42.162;24.754;2023-08-31T13:01:14;7.28;;;2.53;;
64615;SDS011;51027;42.162;24.754;2023-08-31T13:03:39;8.77;;;2.60;;
64615;SDS011;51027;42.162;24.754;2023-08-31T13:06:04;4.75;;;2.25;;
64615;SDS011;51027;42.162;24.754;2023-08-31T13:08:30;8.07;;;2.40;;
64615;SDS011;51027;42.162;24.754;2023-08-31T13:10:55;7.15;;;2.60;;
64615;SDS011;51027;42.162;24.754;2023-08-31T13:13:21;7.93;;;2.50;;
64615;SDS011;51027;42.162;24.754;2023-08-31T13:15:47;5.55;;;2.22;;
64615;SDS011;51027;42.162;24.754;2023-08-31T13:18:12;7.50;;;2.40;;
64615;SDS011;51027;42.162;24.754;2023-08-31T13:20:38;4.57;;;2.05;;
64615;SDS011;51027;42.162;24.754;2023-08-31T13:23:04;8.18;;;2.55;;
64615;SDS011;51027;42.162;24.754;2023-08-31T13:25:29;7.13;;;2.47;;
64615;SDS011;51027;42.162;24.754;2023-08-31T13:27:56;7.35;;;2.55;;
64615;SDS011;51027;42.162;24.754;2023-08-31T13:30:22;4.90;;;2.25;;
64615;SDS011;51027;42.162;24.754;2023-08-31T13:32:47;9.27;;;2.53;;
64615;SDS011;51027;42.162;24.754;2023-08-31T13:35:12;13.00;;;3.88;;
64615;SDS011;51027;42.162;24.754;2023-08-31T13:37:38;7.50;;;2.65;;
64615;SDS011;51027;42.162;24.754;2023-08-31T13:40:03;7.38;;;2.75;;
64615;SDS011;51027;42.162;24.754;2023-08-31T13:42:34;7.20;;;2.40;;
64615;SDS011;51027;42.162;24.754;2023-08-31T13:45:03;6.03;;;3.00;;
64615;SDS011;51027;42.162;24.754;2023-08-31T13:49:57;7.10;;;2.70;;
64615;SDS011;51027;42.162;24.754;2023-08-31T13:52:22;8.95;;;2.60;;
64615;SDS011;51027;42.162;24.754;2023-08-31T13:54:48;5.93;;;2.47;;
64615;SDS011;51027;42.162;24.754;2023-08-31T13:57:13;9.35;;;2.55;;
64615;SDS011;51027;42.162;24.754;2023-08-31T14:02:07;7.07;;;2.60;;
64615;SDS011;51027;42.162;24.754;2023-08-31T14:04:33;6.65;;;2.58;;
64615;SDS011;51027;42.162;24.754;2023-08-31T14:06:58;8.57;;;2.28;;
64615;SDS011;51027;42.162;24.754;2023-08-31T14:09:23;6.93;;;2.75;;
64615;SDS011;51027;42.162;24.754;2023-08-31T14:11:49;8.55;;;2.78;;
64615;SDS011;51027;42.162;24.754;2023-08-31T14:14:14;9.73;;;3.00;;
64615;SDS011;51027;42.162;24.754;2023-08-31T14:16:40;9.18;;;2.90;;
64615;SDS011;51027;42.162;24.754;2023-08-31T14:19:06;5.72;;;2.70;;
64615;SDS011;51027;42.162;24.754;2023-08-31T14:21:31;9.13;;;3.35;;
64615;SDS011;51027;42.162;24.754;2023-08-31T14:23:57;8.13;;;2.78;;
64615;SDS011;51027;42.162;24.754;2023-08-31T14:26:23;8.98;;;2.90;;
64615;SDS011;51027;42.162;24.754;2023-08-31T14:28:50;5.75;;;2.50;;
64615;SDS011;51027;42.162;24.754;2023-08-31T14:31:16;8.07;;;2.63;;
64615;SDS011;51027;42.162;24.754;2023-08-31T14:33:42;7.35;;;2.60;;
64615;SDS011;51027;42.162;24.754;2023-08-31T14:36:07;7.30;;;2.63;;
64615;SDS011;51027;42.162;24.754;2023-08-31T14:38:33;11.95;;;3.05;;
64615;SDS011;51027;42.162;24.754;2023-08-31T14:40:58;9.13;;;2.70;;
64615;SDS011;51027;42.162;24.754;2023-08-31T14:43:24;8.00;;;2.60;;
64615;SDS011;51027;42.162;24.754;2023-08-31T14:45:49;8.82;;;2.95;;
64615;SDS011;51027;42.162;24.754;2023-08-31T14:48:14;6.95;;;2.65;;
64615;SDS011;51027;42.162;24.754;2023-08-31T14:50:43;8.10;;;2.50;;
64615;SDS011;51027;42.162;24.754;2023-08-31T14:53:08;9.43;;;3.00;;
64615;SDS011;51027;42.162;24.754;2023-08-31T14:55:34;7.95;;;2.90;;
64615;SDS011;51027;42.162;24.754;2023-08-31T14:57:59;8.32;;;2.60;;
64615;SDS011;51027;42.162;24.754;2023-08-31T15:00:25;8.07;;;2.88;;